Airfield :
LOGIN :

Register | Disclaimer

   EN    FR    IT 

 










Legend :    VFR   Marginal VFR   IFR   Intensive IFR   Very Intensive IFR
Visi :
Ceiling :
>= 8 km
>= 3000ft
5 to 8 km
1000 to 3000 ft
1500m to 5 km
500 to 1000 ft
800 to 1500m
200 to 500 ft
< 800m
< 200 ft
Symbols :   Thunderstorms  Fog  Heavy snow  Heavy precipitations  Wind > 20 kt
SIGMETs :     Misc.  Thunderstorms  Icing  Turbulence  Mountain Waves  Volcanic Ashes







- Airport Elevation : 39 ft
- IATA code : CTA


LICC - Catania Fontanarossa

CURRENT METAR :
  • 191350Z 33011KT 290V360 9999 FEW070 20/07 Q1013

EXPIRED METARs :
  • 191320Z 01008KT 300V060 9999 FEW070 19/08 Q1013
  • 191250Z 30016KT 9999 SCT070 20/10 Q1013
  • 191220Z 27017KT 9999 SCT070 19/10 Q1013
  • 191150Z 27016KT 9999 FEW090 19/10 Q1013
  • 191120Z 28016KT 9999 FEW060 20/10 Q1014

TAF TAF LICC
Valid from the 19 at 12:00 until the 20 at 12:00 UTC


191100Z 1912/2012 28012KT 9999 SCT035
No reported NOTAMs for that airfield.



MET'MAP, your aeronautical weather chart ! - Copyright ORBIFLY December 2007 - Disclaimer

ORBIFLY MET'MAP TEAM :

Programming & Development : Alexandra Zaïnal
Concept & Development : Baudouin d'Aumeries
Co-Development & Prog : Marc-Olivier Méhu
Technical & hardware support : Manuel Goepfert

Contact : metmap@orbifly.com




SOURCES & CREDITS :

   NOAA